METAR LDZA 190600Z 00000KT 8000 NSC M07/M08 Q1024 NOSIG =
METAR LDZA 190530Z 00000KT 8000 NSC M07/M08 Q1024 NOSIG =
METAR LDZA 190500Z 28003KT CAVOK M06/M07 Q1024 NOSIG =
METAR LDZA 190430Z 00000KT CAVOK M06/M07 Q1024 NOSIG =
METAR LDZA 190400Z 00000KT CAVOK M06/M07 Q1024 NOSIG =
METAR LDZA 190330Z 04002KT CAVOK M06/M07 Q1024 NOSIG =
METAR LDZA 190300Z 00000KT CAVOK M06/M08 Q1024 NOSIG =
METAR LDZA 190230Z 00000KT CAVOK M06/M07 Q1025 NOSIG =
METAR LDZA 190200Z 00000KT CAVOK M06/M07 Q1025 NOSIG =
METAR LDZA 190130Z 00000KT CAVOK M05/M07 Q1025 NOSIG =
METAR LDZA 190100Z 00000KT CAVOK M06/M07 Q1025 NOSIG =
METAR LDZA 190030Z 00000KT CAVOK M06/M07 Q1025 NOSIG =
METAR LDZA 190000Z 18003KT 120V200 CAVOK M05/M07 Q1025 NOSIG =
METAR LDZA 182330Z 24003KT CAVOK M05/M07 Q1025 NOSIG =
METAR LDZA 182300Z 21002KT CAVOK M05/M06 Q1025 NOSIG =
METAR LDZA 182230Z 22001KT CAVOK M05/M06 Q1025 NOSIG =
METAR LDZA 182200Z 00000KT CAVOK M04/M06 Q1025 NOSIG =
METAR LDZA 182130Z 00000KT CAVOK M04/M06 Q1025 NOSIG =
METAR LDZA 182100Z 00000KT CAVOK M04/M06 Q1025 NOSIG =
METAR LDZA 182030Z 00000KT CAVOK M03/M05 Q1025 NOSIG =
METAR LDZA 182000Z 00000KT CAVOK M03/M06 Q1025 NOSIG =
METAR LDZA 181930Z 18003KT 120V240 CAVOK M02/M05 Q1024 NOSIG =
METAR LDZA 181900Z VRB02KT CAVOK M02/M05 Q1024 NOSIG =
METAR LDZA 181830Z 11003KT CAVOK M02/M05 Q1024 NOSIG =
METAR LDZA 181800Z 10003KT CAVOK M01/M05 Q1024 NOSIG =
METAR LDZA 181730Z 11004KT CAVOK M01/M05 Q1024 NOSIG =
METAR LDZA 181700Z 00000KT CAVOK M01/M06 Q1024 NOSIG =
METAR LDZA 181630Z 00000KT CAVOK M00/M06 Q1023 NOSIG =
METAR LDZA 181600Z 00000KT CAVOK 01/M06 Q1023 NOSIG =
METAR LDZA 181530Z 00000KT CAVOK 02/M06 Q1023 NOSIG =
METAR LDZA 181500Z VRB01KT CAVOK 03/M06 Q1023 TEMPO 22008KT =
METAR LDZA 181430Z 21003KT 170V260 CAVOK 03/M07 Q1023 TEMPO 22008KT =
METAR LDZA 181400Z 21004KT 150V240 CAVOK 03/M06 Q1023 TEMPO 22008KT =
METAR LDZA 181330Z 20004KT 100V250 CAVOK 02/M06 Q1023 TEMPO 22008KT =
METAR LDZA 181300Z 20004KT 140V240 CAVOK 02/M06 Q1023 TEMPO 22008KT =
METAR LDZA 181230Z 21007KT 160V240 CAVOK 02/M06 Q1023 NOSIG =
METAR LDZA 181200Z 22007KT 170V240 CAVOK 02/M06 Q1023 NOSIG =
METAR LDZA 181130Z 24006KT 180V290 CAVOK 01/M06 Q1023 NOSIG =
METAR LDZA 181100Z 24008KT 200V260 CAVOK 01/M06 Q1024 NOSIG =
METAR LDZA 181030Z 24007KT 200V270 CAVOK 00/M05 Q1024 NOSIG =
METAR LDZA 181000Z 21007KT 150V250 CAVOK M00/M05 Q1024 NOSIG =
METAR LDZA 180930Z 22007KT CAVOK M01/M04 Q1025 NOSIG =
METAR LDZA 180900Z 22007KT CAVOK M02/M04 Q1025 NOSIG =
METAR LDZA 180830Z 22005KT 8000 NSC M02/M04 Q1024 NOSIG =
METAR LDZA 180800Z 23005KT 200V260 8000 NSC M03/M04 Q1024 NOSIG =
METAR LDZA 180730Z 21004KT 8000 FEW040 M04/M05 Q1024 NOSIG =
METAR LDZA 180700Z 23003KT 8000 FEW040 M05/M06 Q1024 NOSIG =
METAR LDZA 180630Z 00000KT 8000 BKN042 M04/M05 Q1024 NOSIG =
METAR LDZA 180600Z 25003KT 9999 BKN042 M04/M05 Q1024 NOSIG =
METAR LDZA 180530Z 00000KT 9999 BKN043 M03/M05 Q1024 NOSIG =
METAR LDZA 180500Z 24003KT 6000 OVC043 M03/M04 Q1024 NOSIG =
METAR LDZA 180430Z 23003KT 170V290 4000 BR OVC043 M03/M04 Q1024 TEMPO 6000 NSW =
METAR LDZA 180400Z 25002KT 3500 BR OVC045 M03/M04 Q1023 TEMPO 2000 =
METAR LDZA 180330Z 22004KT 3500 BR BKN048 M03/M04 Q1023 TEMPO 2000 =
METAR LDZA 180300Z 00000KT 6000 NSC M03/M04 Q1023 TEMPO 2000 BR =
METAR LDZA 180230Z 00000KT 6000 NSC M03/M04 Q1023 TEMPO 2000 BR =
METAR LDZA 180200Z 26001KT 8000 SCT045 M03/M04 Q1024 NOSIG =
METAR LDZA 180130Z 00000KT 9999 FEW045 M03/M04 Q1024 NOSIG =
METAR LDZA 180100Z 00000KT 9999 FEW040 M03/M04 Q1023 NOSIG =
METAR LDZA 180030Z 00000KT 9999 BKN040 M03/M04 Q1023 NOSIG =
METAR LDZA 180000Z 00000KT 9999 OVC040 M02/M05 Q1023 NOSIG =
METAR LDZA 172330Z 00000KT 9999 FEW043 M02/M05 Q1023 NOSIG =
METAR LDZA 172300Z 05003KT 010V070 CAVOK M03/M05 Q1023 NOSIG =
METAR LDZA 172230Z 05003KT 9999 FEW047 M02/M04 Q1023 NOSIG =
METAR LDZA 172200Z 05002KT 9999 SCT044 M02/M04 Q1023 NOSIG =
METAR LDZA 172130Z 02001KT 9999 FEW042 M02/M04 Q1022 NOSIG =
METAR LDZA 172100Z 00000KT 9999 FEW043 M02/M04 Q1022 NOSIG =
METAR LDZA 172030Z 00000KT CAVOK M02/M04 Q1022 NOSIG =
METAR LDZA 172000Z VRB02KT 9999 -SN FEW033 M02/M04 Q1022 NOSIG =
METAR LDZA 171930Z 04002KT 8000 -SN FEW025 M02/M03 Q1022 NOSIG =
METAR LDZA 171900Z 00000KT 8000 -SN FEW025 M02/M03 Q1021 NOSIG =
METAR LDZA 171830Z 00000KT 8000 -SN FEW039 M02/M03 Q1021 NOSIG =